BIENVENIDO A Fly Ecuador Virtual

Fly Ecuador Virtual es una organización creada con el fin de brindar una plataforma que permita a los pilotos virtuales, principalmente ecuatorianos, tener un lugar donde registrar sus horas de vuelo, sus certificados de conocimiento adquiridos, las rutas que han volado y los destinos que han visitado. Así mismo, se busca ayudar a todos los pilotos a expandir su conocimiento sobre el mundo de la aviación real y virtual por medio de publicaciones, foros y cursos en línea.

A diferencia de las aerolíneas virtuales tradicionales, Fly Ecuador Virtual no simula las operaciones de una aerolínea del mundo real en específico. Un miembro de Fly Ecuador Virtual tiene toda la libertad de volar cualquier aeronave que opere en el espacio aéreo ecuatoriano real, en cualquier ruta, sea esta nacional o internacional, IFR o VFR, aeronaves monomotor, multimotor o helicópteros. Todo esto con el objetivo de expandir las operaciones virtuales dentro del espacio aéreo ecuatoriano, creando una comunidad en la que se compartan conocimientos y experiencias que beneficien a todos sus integrantes.

El crecimiento de Fly Ecuador Virtual depende de la participación conjunta de todos sus miembros, por este motivo se incentiva la participación en línea a través de los diferentes medios descritos más adelante en este sitio web.

 ESTADÍSTICAS

Pilotos 77
Aeronaves en flota 0
Rutas 0
Horas totales: 10517.24
Vuelos totales 1688
Vuelos Regular 0
Vuelos Charter 1735
% Vuelos Regular 0.00 %

 ÚLTIMOS VUELOS

IndicativoPilotoOrigenDestinoFechaTiempo de vuelo
ECU018Luis Heredia  SEGU  SEQM 2018-12-09 0.47
ECU024Arturo Carvajal  SVMI  SEQM 2018-12-09 2.18
ECU018Luis Heredia  SEGU  SEQM 2018-11-25 0.59
ECU024Arturo Carvajal  SEGU  SEQM 2018-11-25 0.54
ECU024Arturo Carvajal  SEGS  MRLB 2018-11-11 1.99

 NUEVOS PILOTOS

 Consultar METAR

METAR
SEGU - José Joaquín de Olmedo International Airport, Guayaquil, ECU
Distance from station: N 0mi, 0km
Updated: Wed, 12-Dec-2018 5:00am PST
Overcast
Overcast
 Wind from SW
Wind: SW 9 mph , 15 km/h
Temperature: 75°F , 24°C
Dew Point: 72°F , 22°C
Humidity: 89%
Barometer: 29.88 inHg , 1012 hPa
Clouds: Overcast
Visibility: 6 miles , 10 km
Cloud details: Mostly Cloudy 2300 ft
Overcast 10000 ft
2018/12/12 13:00 SEGU 121300Z 22008KT 9999 BKN023 OVC100 24/22 Q1012 NOSIG RMK A2991
 
SEQM - Aeropuerto Internacional Mariscal Sucre, ECU
Distance from station: NE 120mi, 200km
Updated: Wed, 12-Dec-2018 5:00am PST
Partly Cloudy
Partly Cloudy
 Wind from varies
Wind: varies 2 mph , 4 km/h
Temperature: 57°F , 14°C
Dew Point: 57°F , 14°C
Humidity: 100%
Barometer: 30.36 inHg , 1028 hPa
Clouds: Partly Cloudy
Visibility: 6 miles , 10 km
Cloud details: Few Clouds 500 ft
Partly Cloudy 2000 ft
2018/12/12 13:00 SEQM 121300Z VRB02KT 9999 FEW005 SCT020 14/14 Q1028 NOSIG RMK A3037
 
SECU - Mariscal Lamar Airpor, ECU
Distance from station: ENE 80mi, 120km
Updated: Wed, 12-Dec-2018 5:00am PST
Patches of fog, Mostly cloudy
Patches of fog, Mostly cloudy
 Wind from E
Wind: E 5 mph , 7 km/h
Temperature: 55°F , 13°C
Dew Point: 55°F , 13°C
Humidity: 100%
Barometer: 30.39 inHg , 1029 hPa
Summary: Patches of Fog
Clouds: Mostly Cloudy
Visibility: 5 miles , 8 km
Cloud details: Partly Cloudy 500 ft
Mostly Cloudy 3000 ft
2018/12/12 13:00 SECU 121300Z 08004KT 8000 BCFG SCT005 BKN030 13/13 Q1029
 
SELT - Cotopaxi International Airport, ECU
Distance from station: NW 21mi, 34km
Updated: Wed, 12-Dec-2018 5:00am PST
Partly Cloudy
Partly Cloudy
 Wind from S
Wind: S 7 mph , 11 km/h
Temperature: 54°F , 12°C
Dew Point: 50°F , 10°C
Humidity: 88%
Barometer: 30.47 inHg , 1032 hPa
Clouds: Partly Cloudy
Visibility: 6 miles , 10 km
Cloud details: Few Clouds 1000 ft
Partly Cloudy 2600 ft
2018/12/12 13:00 SELT 121300Z 17006KT 9999 FEW010 SCT026 12/10 Q1032
 
SEMT - Eloy Alfaro International Airport, ECU
Distance from station: SSE 70mi, 100km
Updated: Wed, 12-Dec-2018 5:00am PST
Overcast
Overcast
 Wind from SSW
Wind: SSW 7 mph , 11 km/h
Temperature: 75°F , 24°C
Dew Point: 72°F , 22°C
Humidity: 89%
Barometer: 29.94 inHg , 1014 hPa
Clouds: Overcast
Visibility: 6 miles , 10 km
Cloud details: Overcast 1600 ft
2018/12/12 13:00 SEMT 121300Z 21006KT 9999 OVC016 24/22 Q1014 RMK A2995

Metar display script from Saratoga-Weather.org

 NOTAMS

NOTAMFecha



Fly Ecuador Virtual 2018 | System by VAM